»·PEaware :: AAL1524 KSLC-KEGE

AAL1524 :: KSLC-KEGE

FLIGHT INFORMATION

Flight Status: Arrived
Operator:
American Airlines
More flights by this operator :: More flights under this callsign
Pilot: Matteo S. (9898)
Aircraft: AIRBUS A320
(A320)
More flights by this aircraft type
Origin: KSLC Salt Lake City Intl
United States
Destination: KEGE Eagle Co Regl
United States
More flights between these airports :: More routes between these airports
Route: + LEETZ5 MTU EKR JESIE RLG
File this flight plan on PilotEdge
Remarks:
Altitude:
(Current/Filed)
29,000ft
Speed:
(Current/Filed)
450kts
Departed: 10-Jan-17 05:49 PM
Arrived: 10-Jan-17 06:42 PM
Distance/Time
Traveled:
242nm/0:53
Distance/Time
To Go:
Arrived

Flight Plot

Page will automatically refresh every two minutes.

Flight plan parsing failed; only flown route is shown


Map Options




Map Legend


Flown Route
Filed Route
Departure Airport
Arrival Airport
Navaid (VOR, NDB)
Fix

Horizontal Profiles

Position Reports

Time Latitude Longitude Heading Altitude Ground
Speed
10-Jan-17 17:27 40.788156 -111.983976 252 4241ft 0kts
10-Jan-17 17:28 40.788156 -111.983976 252 4241ft 0kts
10-Jan-17 17:29 40.788156 -111.983976 252 4241ft 0kts
10-Jan-17 17:30 40.788156 -111.983976 252 4241ft 0kts
10-Jan-17 17:31 40.788156 -111.983976 252 4241ft 0kts
10-Jan-17 17:32 40.788156 -111.983976 252 4241ft 0kts
10-Jan-17 17:33 40.788156 -111.983976 252 4241ft 0kts
10-Jan-17 17:34 40.788156 -111.983976 252 4241ft 0kts
10-Jan-17 17:35 40.788156 -111.983976 252 4241ft 0kts
10-Jan-17 17:36 40.788156 -111.983976 252 4241ft 0kts
10-Jan-17 17:37 40.788156 -111.983976 252 4241ft 0kts
10-Jan-17 17:38 40.788156 -111.983976 252 4241ft 0kts
10-Jan-17 17:39 40.788224 -111.983686 252 4241ft 2kts
10-Jan-17 17:40 40.788406 -111.982924 252 4241ft 0kts
10-Jan-17 17:41 40.788462 -111.983176 305 4241ft 5kts
10-Jan-17 17:42 40.790654 -111.984459 352 4241ft 12kts
10-Jan-17 17:43 40.791783 -111.980924 85 4241ft 11kts
10-Jan-17 17:44 40.793319 -111.977411 354 4241ft 19kts
10-Jan-17 17:45 40.799401 -111.978086 354 4241ft 21kts
10-Jan-17 17:46 40.805382 -111.978864 354 4241ft 16kts
10-Jan-17 17:47 40.807397 -111.978184 85 4241ft 0kts
10-Jan-17 17:48 40.807341 -111.977317 107 4241ft 12kts
10-Jan-17 17:49 40.785464 -111.974223 173 4605ft 150kts
10-Jan-17 17:50 40.755908 -112.022381 248 6680ft 229kts
10-Jan-17 17:51 40.759380 -112.106113 310 9793ft 267kts
10-Jan-17 17:52 40.822907 -112.170199 316 12572ft 306kts
10-Jan-17 17:53 40.896375 -112.230916 336 16168ft 324kts
10-Jan-17 17:54 40.989078 -112.228248 22 19356ft 364kts
10-Jan-17 17:55 41.026070 -112.098162 95 21113ft 424kts
10-Jan-17 17:56 40.982885 -111.951390 131 22782ft 437kts
10-Jan-17 17:57 40.901890 -111.831584 140 24816ft 440kts
10-Jan-17 17:58 40.817320 -111.711035 140 26586ft 452kts
10-Jan-17 17:59 40.742419 -111.576121 120 28609ft 465kts
10-Jan-17 18:00 40.694739 -111.413625 116 28798ft 489kts
10-Jan-17 18:01 40.645638 -111.242504 115 29621ft 508kts
10-Jan-17 18:02 40.595003 -111.066501 116 30879ft 518kts
10-Jan-17 18:03 40.543321 -110.888054 115 32047ft 526kts
10-Jan-17 18:04 40.490842 -110.707831 115 32789ft 532kts
10-Jan-17 18:05 40.436234 -110.525878 120 32824ft 537kts
10-Jan-17 18:06 40.347138 -110.374947 145 32852ft 518kts
10-Jan-17 18:07 40.242988 -110.243978 145 32844ft 522kts
10-Jan-17 18:08 40.152903 -110.093919 112 32843ft 550kts
10-Jan-17 18:09 40.140230 -109.894001 91 32844ft 557kts
10-Jan-17 18:10 40.135496 -109.691816 91 32838ft 556kts
10-Jan-17 18:11 40.129952 -109.489116 91 32843ft 558kts
10-Jan-17 18:12 40.123822 -109.286627 91 32849ft 558kts
10-Jan-17 18:13 40.117194 -109.083510 91 32853ft 561kts
10-Jan-17 18:14 40.110123 -108.879900 91 32479ft 562kts
10-Jan-17 18:15 40.102877 -108.676056 92 31481ft 556kts
10-Jan-17 18:16 40.095309 -108.476176 92 30479ft 549kts
10-Jan-17 18:17 40.087496 -108.279623 93 29481ft 538kts
10-Jan-17 18:18 40.079353 -108.086439 93 28474ft 529kts
10-Jan-17 18:19 40.070959 -107.896094 93 27324ft 519kts
10-Jan-17 18:20 40.061841 -107.710506 93 26023ft 508kts
10-Jan-17 18:21 40.053674 -107.528904 92 24573ft 495kts
10-Jan-17 18:22 40.059056 -107.354140 61 23062ft 472kts
10-Jan-17 18:23 40.126769 -107.214003 45 21565ft 447kts
10-Jan-17 18:24 40.199285 -107.085524 45 20060ft 423kts
10-Jan-17 18:25 40.263224 -106.960469 66 18551ft 421kts
10-Jan-17 18:26 40.267538 -106.810899 89 17060ft 403kts
10-Jan-17 18:27 40.266669 -106.665788 89 15501ft 391kts
10-Jan-17 18:28 40.240128 -106.537729 143 13797ft 355kts
10-Jan-17 18:29 40.158928 -106.494406 176 12956ft 295kts
10-Jan-17 18:30 40.079218 -106.468256 175 12946ft 296kts
10-Jan-17 18:31 39.999397 -106.447597 194 12948ft 279kts
10-Jan-17 18:32 39.927156 -106.474558 206 12953ft 269kts
10-Jan-17 18:33 39.858290 -106.503344 206 12959ft 258kts
10-Jan-17 18:34 39.789865 -106.532094 206 12969ft 259kts
10-Jan-17 18:35 39.725752 -106.558897 207 12981ft 236kts
10-Jan-17 18:36 39.689389 -106.609583 256 12273ft 198kts
10-Jan-17 18:37 39.677866 -106.677824 256 10780ft 181kts
10-Jan-17 18:38 39.667373 -106.745766 256 9629ft 189kts
10-Jan-17 18:39 39.658640 -106.803411 252 8496ft 143kts
10-Jan-17 18:40 39.649993 -106.851848 259 7381ft 137kts
10-Jan-17 18:41 39.644532 -106.899950 258 6615ft 130kts
10-Jan-17 18:42 39.641852 -106.923504 260 6549ft 11kts
10-Jan-17 18:43 39.641455 -106.924015 166 6549ft 0kts
10-Jan-17 18:44 39.641586 -106.919261 81 6549ft 23kts
10-Jan-17 18:45 39.640507 -106.916233 173 6549ft 0kts
10-Jan-17 18:46 39.640507 -106.916233 173 6549ft 0kts

Navigation Log

Ident Type
Flight plan parsing failed, navigation log unavailable